Time,TemperatureF,DewpointF,PressureIn,WindDirection,WindDirectionDegrees,WindSpeedMPH,WindSpeedGustMPH,Humidity,HourlyPrecipIn,Conditions,Clouds,dailyrainin,SoftwareType,DateUTC
2013-01-28 00:01:00,36.8,32.7,29.82,NNW,342,2.3,2.3,85,0.00,OVC,OVC,0.00,WeatherDisplay:10.37,2013-01-28 06:01:00,
2013-01-28 00:07:00,36.7,32.6,29.82,NNW,342,2.3,0.0,85,0.00,OVC,OVC,0.00,WeatherDisplay:10.37,2013-01-28 06:07:00,
2013-01-28 00:12:00,36.6,32.5,29.82,NNW,342,0.0,0.0,85,0.00,OVC,OVC,0.00,WeatherDisplay:10.37,2013-01-28 06:12:00,
2013-01-28 00:17:00,36.6,32.5,29.82,NNW,342,0.0,0.0,85,0.00,OVC,OVC,0.00,WeatherDisplay:10.37,2013-01-28 06:17:00,
2013-01-28 00:23:00,36.5,32.7,29.82,NNW,342,0.0,0.0,86,0.00,OVC,OVC,0.00,WeatherDisplay:10.37,2013-01-28 06:23:00,
2013-01-28 00:28:00,36.5,32.7,29.83,NNW,342,0.0,0.0,86,0.00,OVC,OVC,0.00,WeatherDisplay:10.37,2013-01-28 06:28:00,
2013-01-28 00:33:00,36.5,32.7,29.83,NNW,342,0.0,0.0,86,0.00,OVC,OVC,0.00,WeatherDisplay:10.37,2013-01-28 06:33:00,
2013-01-28 00:38:00,36.5,32.7,29.83,NNW,342,0.0,0.0,86,0.00,OVC,OVC,0.00,WeatherDisplay:10.37,2013-01-28 06:38:00,
2013-01-28 00:44:00,36.5,32.7,29.83,NNW,342,0.0,0.0,86,0.00,OVC,OVC,0.00,WeatherDisplay:10.37,2013-01-28 06:44:00,
2013-01-28 00:49:00,36.4,32.6,29.84,NNW,342,0.0,0.0,86,0.00,OVC,OVC,0.00,WeatherDisplay:10.37,2013-01-28 06:49:00,
2013-01-28 00:54:00,36.3,32.2,29.84,NNW,341,1.2,0.0,85,0.00,OVC,OVC,0.00,WeatherDisplay:10.37,2013-01-28 06:54:00,
2013-01-28 00:59:00,36.3,32.2,29.84,NNW,341,0.0,0.0,85,0.00,OVC,OVC,0.00,WeatherDisplay:10.37,2013-01-28 06:59:00,
2013-01-28 01:05:00,36.2,32.1,29.84,NNW,341,0.0,0.0,85,0.00,OVC,OVC,0.00,WeatherDisplay:10.37,2013-01-28 07:05:00,
2013-01-28 01:10:00,36.2,32.1,29.84,NNW,341,0.0,0.0,85,0.00,OVC,OVC,0.00,WeatherDisplay:10.37,2013-01-28 07:10:00,
2013-01-28 01:15:00,36.2,32.1,29.84,NNW,341,0.0,0.0,85,0.00,OVC,OVC,0.00,WeatherDisplay:10.37,2013-01-28 07:15:00,
2013-01-28 01:20:00,36.3,32.2,29.85,NNW,341,0.0,0.0,85,0.00,OVC,OVC,0.00,WeatherDisplay:10.37,2013-01-28 07:20:00,
2013-01-28 01:26:00,36.4,32.3,29.85,NNW,341,0.0,0.0,85,0.00,OVC,OVC,0.00,WeatherDisplay:10.37,2013-01-28 07:26:00,
2013-01-28 01:31:00,36.4,32.3,29.85,NNW,341,1.2,1.2,85,0.00,OVC,OVC,0.00,WeatherDisplay:10.37,2013-01-28 07:31:00,
2013-01-28 01:36:00,36.3,32.2,29.86,NNW,341,0.0,0.0,85,0.00,OVC,OVC,0.00,WeatherDisplay:10.37,2013-01-28 07:36:00,
2013-01-28 01:41:00,36.2,32.1,29.86,NNW,341,2.3,2.3,85,0.00,OVC,OVC,0.00,WeatherDisplay:10.37,2013-01-28 07:41:00,
2013-01-28 01:47:00,36.1,32.3,29.86,NNW,335,2.3,2.3,86,0.00,OVC,OVC,0.00,WeatherDisplay:10.37,2013-01-28 07:47:00,
2013-01-28 01:52:00,36.1,32.3,29.86,NNW,335,1.2,1.2,86,0.00,OVC,OVC,0.00,WeatherDisplay:10.37,2013-01-28 07:52:00,
2013-01-28 01:57:00,36.1,32.3,29.86,NNW,335,0.0,0.0,86,0.00,OVC,OVC,0.00,WeatherDisplay:10.37,2013-01-28 07:57:00,
2013-01-28 02:02:00,36.1,32.3,29.86,NNW,335,2.3,0.0,86,0.00,OVC,OVC,0.00,WeatherDisplay:10.37,2013-01-28 08:02:00,
2013-01-28 02:08:00,36.1,32.3,29.87,NNW,335,2.3,2.3,86,0.00,OVC,OVC,0.00,WeatherDisplay:10.37,2013-01-28 08:08:00,
2013-01-28 02:13:00,36.2,32.4,29.87,NNW,334,2.3,2.3,86,0.00,OVC,OVC,0.00,WeatherDisplay:10.37,2013-01-28 08:13:00,
2013-01-28 02:18:00,36.2,32.4,29.87,NNW,331,2.3,2.3,86,0.00,OVC,OVC,0.00,WeatherDisplay:10.37,2013-01-28 08:18:00,
2013-01-28 02:23:00,36.1,32.3,29.87,NNW,327,2.3,2.3,86,0.00,OVC,OVC,0.00,WeatherDisplay:10.37,2013-01-28 08:23:00,
2013-01-28 02:29:00,36.2,32.4,29.87,NNW,327,2.3,2.3,86,0.00,OVC,OVC,0.00,WeatherDisplay:10.37,2013-01-28 08:29:00,
2013-01-28 02:34:00,36.1,32.3,29.87,NW,326,3.5,3.5,86,0.00,OVC,OVC,0.00,WeatherDisplay:10.37,2013-01-28 08:34:00,
2013-01-28 02:39:00,36.1,32.3,29.88,NW,326,3.5,3.5,86,0.00,OVC,OVC,0.00,WeatherDisplay:10.37,2013-01-28 08:39:00,
2013-01-28 02:44:00,36.0,32.2,29.88,NW,313,2.3,0.0,86,0.00,OVC,OVC,0.00,WeatherDisplay:10.37,2013-01-28 08:44:00,
2013-01-28 02:50:00,35.9,32.1,29.88,NW,313,1.2,0.0,86,0.00,OVC,OVC,0.00,WeatherDisplay:10.37,2013-01-28 08:50:00,
2013-01-28 02:55:00,35.8,31.7,29.88,WNW,296,2.3,2.3,85,0.00,OVC,OVC,0.00,WeatherDisplay:10.37,2013-01-28 08:55:00,
2013-01-28 03:00:00,35.7,31.9,29.88,WNW,296,0.0,0.0,86,0.00,OVC,OVC,0.00,WeatherDisplay:10.37,2013-01-28 09:00:00,
2013-01-28 03:05:00,35.6,31.8,29.88,WNW,296,2.3,2.3,86,0.00,OVC,OVC,0.00,WeatherDisplay:10.37,2013-01-28 09:05:00,
2013-01-28 03:11:00,35.6,31.8,29.88,WNW,296,0.0,0.0,86,0.00,OVC,OVC,0.00,WeatherDisplay:10.37,2013-01-28 09:11:00,
2013-01-28 03:16:00,35.6,31.8,29.88,WNW,296,2.3,2.3,86,0.00,OVC,OVC,0.00,WeatherDisplay:10.37,2013-01-28 09:16:00,
2013-01-28 03:21:00,35.5,31.7,29.88,WNW,296,2.3,2.3,86,0.00,OVC,OVC,0.00,WeatherDisplay:10.37,2013-01-28 09:21:00,
2013-01-28 03:26:00,35.5,31.7,29.88,WNW,296,2.3,2.3,86,0.00,OVC,OVC,0.00,WeatherDisplay:10.37,2013-01-28 09:26:00,
2013-01-28 03:31:00,35.4,31.6,29.88,WNW,296,1.2,1.2,86,0.00,OVC,OVC,0.00,WeatherDisplay:10.37,2013-01-28 09:31:00,
2013-01-28 03:37:00,35.4,31.6,29.89,WNW,296,3.5,3.5,86,0.00,OVC,OVC,0.00,WeatherDisplay:10.37,2013-01-28 09:37:00,
2013-01-28 03:42:00,35.4,31.6,29.89,WNW,296,2.3,2.3,86,0.00,OVC,OVC,0.00,WeatherDisplay:10.37,2013-01-28 09:42:00,
2013-01-28 03:47:00,35.4,31.6,29.89,WNW,296,1.2,1.2,86,0.00,OVC,OVC,0.00,WeatherDisplay:10.37,2013-01-28 09:47:00,
2013-01-28 03:52:00,35.4,31.6,29.90,WNW,296,1.2,1.2,86,0.00,OVC,OVC,0.00,WeatherDisplay:10.37,2013-01-28 09:52:00,
2013-01-28 03:57:00,35.4,31.6,29.90,WNW,296,0.0,0.1,86,0.00,OVC,OVC,0.00,WeatherDisplay:10.37,2013-01-28 09:57:00,
2013-01-28 04:03:00,35.4,31.6,29.89,NW,306,3.5,3.5,86,0.00,OVC,OVC,0.00,WeatherDisplay:10.37,2013-01-28 10:03:00,
2013-01-28 04:08:00,35.4,31.6,29.90,West,275,6.9,6.9,86,0.00,OVC,OVC,0.00,WeatherDisplay:10.37,2013-01-28 10:08:00,
2013-01-28 04:13:00,35.4,31.6,29.90,WNW,292,6.0,6.0,86,0.00,OVC,OVC,0.00,WeatherDisplay:10.37,2013-01-28 10:13:00,
2013-01-28 04:18:00,35.4,31.6,29.90,WNW,295,3.5,3.5,86,0.00,OVC,OVC,0.00,WeatherDisplay:10.37,2013-01-28 10:18:00,
2013-01-28 04:23:00,35.4,31.6,29.90,NNW,335,5.8,5.8,86,0.00,OVC,OVC,0.00,WeatherDisplay:10.37,2013-01-28 10:23:00,
2013-01-28 04:29:00,35.3,31.5,29.90,NW,313,1.2,0.0,86,0.00,OVC,OVC,0.00,WeatherDisplay:10.37,2013-01-28 10:29:00,
2013-01-28 04:34:00,35.3,31.5,29.90,NW,314,2.3,2.3,86,0.00,OVC,OVC,0.00,WeatherDisplay:10.37,2013-01-28 10:34:00,
2013-01-28 04:39:00,35.3,31.5,29.90,NW,314,2.3,2.3,86,0.00,OVC,OVC,0.00,WeatherDisplay:10.37,2013-01-28 10:39:00,
2013-01-28 04:44:00,35.4,31.6,29.91,NW,314,3.5,3.5,86,0.00,OVC,OVC,0.00,WeatherDisplay:10.37,2013-01-28 10:44:00,
2013-01-28 04:49:00,35.4,31.6,29.91,NW,317,3.5,3.5,86,0.00,OVC,OVC,0.00,WeatherDisplay:10.37,2013-01-28 10:49:00,
2013-01-28 04:55:00,35.4,31.6,29.91,NW,315,4.0,4.0,86,0.00,CLR,CLR,0.00,WeatherDisplay:10.37,2013-01-28 10:55:00,
2013-01-28 05:00:00,35.6,31.8,29.91,WNW,301,3.5,3.5,86,0.00,OVC,OVC,0.00,WeatherDisplay:10.37,2013-01-28 11:00:00,
2013-01-28 05:05:00,35.6,31.8,29.91,WNW,301,1.2,1.2,86,0.00,OVC,OVC,0.00,WeatherDisplay:10.37,2013-01-28 11:05:00,
2013-01-28 05:11:00,35.6,31.8,29.91,WNW,301,0.0,0.0,86,0.00,OVC,OVC,0.00,WeatherDisplay:10.37,2013-01-28 11:11:00,
2013-01-28 05:16:00,35.5,31.7,29.91,WNW,301,0.0,0.0,86,0.00,OVC,OVC,0.00,WeatherDisplay:10.37,2013-01-28 11:16:00,
2013-01-28 05:21:00,35.4,31.6,29.91,WNW,301,2.3,2.3,86,0.00,OVC,OVC,0.00,WeatherDisplay:10.37,2013-01-28 11:21:00,
2013-01-28 05:26:00,35.3,31.5,29.91,WNW,301,2.3,2.3,86,0.00,OVC,OVC,0.00,WeatherDisplay:10.37,2013-01-28 11:26:00,
2013-01-28 05:31:00,35.2,31.4,29.91,WNW,302,3.0,3.0,86,0.00,OVC,OVC,0.00,WeatherDisplay:10.37,2013-01-28 11:31:00,
2013-01-28 05:36:00,35.2,31.4,29.91,WNW,302,0.0,0.0,86,0.00,OVC,OVC,0.00,WeatherDisplay:10.37,2013-01-28 11:36:00,
2013-01-28 05:42:00,35.1,31.3,29.91,WNW,302,1.2,0.0,86,0.00,OVC,OVC,0.00,WeatherDisplay:10.37,2013-01-28 11:42:00,
2013-01-28 05:47:00,35.1,31.3,29.92,WNW,302,0.0,0.0,86,0.00,OVC,OVC,0.00,WeatherDisplay:10.37,2013-01-28 11:47:00,
2013-01-28 05:52:00,35.1,31.3,29.92,WNW,302,0.0,0.0,86,0.00,OVC,OVC,0.00,WeatherDisplay:10.37,2013-01-28 11:52:00,
2013-01-28 05:57:00,35.1,31.3,29.92,WNW,302,0.0,0.0,86,0.00,OVC,OVC,0.00,WeatherDisplay:10.37,2013-01-28 11:57:00,
2013-01-28 06:02:00,35.1,31.3,29.92,WNW,302,0.0,0.0,86,0.00,OVC,OVC,0.00,WeatherDisplay:10.37,2013-01-28 12:02:00,
2013-01-28 06:07:00,35.1,31.3,29.92,WNW,302,0.0,0.0,86,0.00,OVC,OVC,0.00,WeatherDisplay:10.37,2013-01-28 12:07:00,
2013-01-28 06:13:00,35.0,31.2,29.93,WNW,302,0.0,0.0,86,0.00,OVC,OVC,0.00,WeatherDisplay:10.37,2013-01-28 12:13:00,
2013-01-28 06:18:00,35.0,31.2,29.93,WNW,302,2.3,2.3,86,0.00,OVC,OVC,0.00,WeatherDisplay:10.37,2013-01-28 12:18:00,
2013-01-28 06:23:00,34.9,31.1,29.93,WNW,302,0.0,0.0,86,0.00,OVC,OVC,0.00,WeatherDisplay:10.37,2013-01-28 12:23:00,
2013-01-28 06:29:00,34.9,31.1,29.93,WNW,302,0.0,0.0,86,0.00,OVC,OVC,0.00,WeatherDisplay:10.37,2013-01-28 12:29:00,
2013-01-28 06:34:00,34.9,31.1,29.93,WNW,302,0.0,0.0,86,0.00,OVC,OVC,0.00,WeatherDisplay:10.37,2013-01-28 12:34:00,
2013-01-28 06:39:00,34.9,31.1,29.94,WNW,302,0.0,0.0,86,0.00,OVC,OVC,0.00,WeatherDisplay:10.37,2013-01-28 12:39:00,
2013-01-28 06:44:00,34.9,31.1,29.94,WNW,302,0.0,0.0,86,0.00,OVC,OVC,0.00,WeatherDisplay:10.37,2013-01-28 12:44:00,
2013-01-28 06:49:00,35.0,31.2,29.94,WNW,302,0.0,0.0,86,0.00,OVC,OVC,0.00,WeatherDisplay:10.37,2013-01-28 12:49:00,
2013-01-28 06:55:00,35.0,31.2,29.93,WNW,302,0.0,0.0,86,0.00,OVC,OVC,0.00,WeatherDisplay:10.37,2013-01-28 12:55:00,
2013-01-28 07:00:00,34.9,31.1,29.92,WNW,302,0.0,0.0,86,0.00,OVC,OVC,0.00,WeatherDisplay:10.37,2013-01-28 13:00:00,
2013-01-28 07:05:00,34.9,31.1,29.93,WNW,302,0.0,0.0,86,0.00,OVC,OVC,0.00,WeatherDisplay:10.37,2013-01-28 13:05:00,
2013-01-28 07:11:00,34.9,31.1,29.93,WNW,302,0.0,0.0,86,0.00,OVC,OVC,0.00,WeatherDisplay:10.37,2013-01-28 13:11:00,
2013-01-28 07:16:00,34.9,31.1,29.93,WNW,302,0.0,0.0,86,0.00,OVC,OVC,0.00,WeatherDisplay:10.37,2013-01-28 13:16:00,
2013-01-28 07:21:00,34.9,31.1,29.94,West,273,2.3,2.3,86,0.00,OVC,OVC,0.00,WeatherDisplay:10.37,2013-01-28 13:21:00,
2013-01-28 07:26:00,34.8,31.0,29.94,West,273,0.0,0.0,86,0.00,OVC,OVC,0.00,WeatherDisplay:10.37,2013-01-28 13:26:00,
2013-01-28 07:31:00,34.8,31.0,29.93,West,273,0.0,0.0,86,0.00,OVC,OVC,0.00,WeatherDisplay:10.37,2013-01-28 13:31:00,
2013-01-28 07:37:00,34.8,31.0,29.94,West,272,0.0,0.0,86,0.00,OVC,OVC,0.00,WeatherDisplay:10.37,2013-01-28 13:37:00,
2013-01-28 07:42:00,34.8,31.0,29.94,West,273,0.0,0.0,86,0.00,OVC,OVC,0.00,WeatherDisplay:10.37,2013-01-28 13:42:00,
2013-01-28 07:47:00,34.7,30.9,29.95,SW,236,3.0,3.0,86,0.00,OVC,OVC,0.00,WeatherDisplay:10.37,2013-01-28 13:47:00,
2013-01-28 07:53:00,34.8,31.0,29.94,SW,229,2.3,2.3,86,0.00,OVC,OVC,0.00,WeatherDisplay:10.37,2013-01-28 13:53:00,
2013-01-28 07:58:00,34.8,31.0,29.94,SW,227,0.0,0.4,86,0.00,OVC,OVC,0.00,WeatherDisplay:10.37,2013-01-28 13:58:00,
2013-01-28 08:03:00,34.8,31.0,29.94,SW,227,2.3,2.3,86,0.00,OVC,OVC,0.00,WeatherDisplay:10.37,2013-01-28 14:03:00,
2013-01-28 08:08:00,35.0,31.2,29.94,SW,223,1.2,0.0,86,0.00,OVC,OVC,0.00,WeatherDisplay:10.37,2013-01-28 14:08:00,
2013-01-28 08:14:00,35.0,31.2,29.95,South,181,3.5,3.5,86,0.00,OVC,OVC,0.00,WeatherDisplay:10.37,2013-01-28 14:14:00,
2013-01-28 08:19:00,35.1,31.3,29.95,South,181,2.3,2.3,86,0.00,OVC,OVC,0.00,WeatherDisplay:10.37,2013-01-28 14:19:00,
2013-01-28 08:24:00,35.1,31.3,29.95,South,181,0.0,0.0,86,0.00,OVC,OVC,0.00,WeatherDisplay:10.37,2013-01-28 14:24:00,
2013-01-28 08:29:00,35.2,31.4,29.95,South,181,0.0,0.0,86,0.00,OVC,OVC,0.00,WeatherDisplay:10.37,2013-01-28 14:29:00,
2013-01-28 08:35:00,35.2,31.4,29.94,South,181,0.0,0.0,86,0.00,OVC,OVC,0.00,WeatherDisplay:10.37,2013-01-28 14:35:00,
2013-01-28 08:40:00,35.2,31.4,29.95,South,181,0.0,0.0,86,0.00,OVC,OVC,0.00,WeatherDisplay:10.37,2013-01-28 14:40:00,
2013-01-28 08:45:00,35.1,31.3,29.95,South,181,0.0,0.0,86,0.00,OVC,OVC,0.00,WeatherDisplay:10.37,2013-01-28 14:45:00,
2013-01-28 08:50:00,35.1,31.3,29.95,South,181,0.0,0.0,86,0.00,OVC,OVC,0.00,WeatherDisplay:10.37,2013-01-28 14:50:00,
2013-01-28 08:56:00,35.2,31.4,29.95,South,181,0.0,0.0,86,0.00,OVC,OVC,0.00,WeatherDisplay:10.37,2013-01-28 14:56:00,
2013-01-28 09:01:00,35.4,31.6,29.95,South,181,0.0,0.0,86,0.00,OVC,OVC,0.00,WeatherDisplay:10.37,2013-01-28 15:01:00,
2013-01-28 09:06:00,35.5,31.7,29.95,South,181,0.0,0.0,86,0.00,OVC,OVC,0.00,WeatherDisplay:10.37,2013-01-28 15:06:00,
2013-01-28 09:11:00,35.7,31.9,29.95,South,181,0.0,0.0,86,0.00,OVC,OVC,0.00,WeatherDisplay:10.37,2013-01-28 15:11:00,
2013-01-28 09:17:00,35.7,31.9,29.95,South,181,2.3,2.3,86,0.00,OVC,OVC,0.00,WeatherDisplay:10.37,2013-01-28 15:17:00,
2013-01-28 09:22:00,35.7,31.9,29.95,South,181,0.0,0.0,86,0.00,OVC,OVC,0.00,WeatherDisplay:10.37,2013-01-28 15:22:00,
2013-01-28 09:27:00,35.7,31.9,29.95,South,181,3.5,3.5,86,0.00,OVC,OVC,0.00,WeatherDisplay:10.37,2013-01-28 15:27:00,
2013-01-28 09:32:00,35.7,31.9,29.95,South,181,0.0,0.0,86,0.00,OVC,OVC,0.00,WeatherDisplay:10.37,2013-01-28 15:32:00,
2013-01-28 09:37:00,35.7,31.9,29.95,South,181,2.3,2.3,86,0.00,OVC,OVC,0.00,WeatherDisplay:10.37,2013-01-28 15:37:00,
2013-01-28 09:42:00,35.7,31.9,29.95,South,181,0.0,0.0,86,0.00,OVC,OVC,0.00,WeatherDisplay:10.37,2013-01-28 15:42:00,
2013-01-28 09:48:00,35.6,31.8,29.95,South,181,0.0,0.0,86,0.00,OVC,OVC,0.00,WeatherDisplay:10.37,2013-01-28 15:48:00,
2013-01-28 09:53:00,35.7,31.9,29.95,South,181,2.3,2.3,86,0.00,OVC,OVC,0.00,WeatherDisplay:10.37,2013-01-28 15:53:00,
2013-01-28 09:58:00,35.7,31.9,29.94,South,181,1.2,0.0,86,0.00,OVC,OVC,0.00,WeatherDisplay:10.37,2013-01-28 15:58:00,
2013-01-28 10:03:00,35.9,32.1,29.94,South,181,2.3,2.3,86,0.00,OVC,OVC,0.00,WeatherDisplay:10.37,2013-01-28 16:03:00,
2013-01-28 10:08:00,36.0,32.2,29.94,South,180,1.2,0.0,86,0.00,OVC,OVC,0.00,WeatherDisplay:10.37,2013-01-28 16:08:00,
2013-01-28 10:13:00,36.0,32.2,29.94,South,180,0.0,0.0,86,0.00,OVC,OVC,0.00,WeatherDisplay:10.37,2013-01-28 16:13:00,
2013-01-28 10:19:00,36.3,32.5,29.94,South,180,1.0,0.0,86,0.00,OVC,OVC,0.00,WeatherDisplay:10.37,2013-01-28 16:19:00,
2013-01-28 10:24:00,36.4,32.6,29.94,South,180,1.2,0.0,86,0.00,OVC,OVC,0.00,WeatherDisplay:10.37,2013-01-28 16:24:00,
2013-01-28 10:29:00,36.4,32.6,29.93,South,180,0.0,0.0,86,0.00,OVC,OVC,0.00,WeatherDisplay:10.37,2013-01-28 16:29:00,
2013-01-28 10:35:00,36.5,32.7,29.93,South,180,2.3,2.3,86,0.00,OVC,OVC,0.00,WeatherDisplay:10.37,2013-01-28 16:35:00,
2013-01-28 10:40:00,36.6,32.8,29.93,South,179,1.0,1.0,86,0.00,OVC,OVC,0.00,WeatherDisplay:10.37,2013-01-28 16:40:00,
2013-01-28 10:45:00,36.3,32.5,29.93,SSE,151,3.5,3.5,86,0.00,OVC,OVC,0.00,WeatherDisplay:10.37,2013-01-28 16:45:00,
2013-01-28 10:50:00,36.2,32.4,29.93,SSE,151,3.5,3.5,86,0.00,OVC,OVC,0.00,WeatherDisplay:10.37,2013-01-28 16:50:00,
2013-01-28 10:55:00,36.1,32.3,29.93,SE,142,2.3,2.3,86,0.00,OVC,OVC,0.00,WeatherDisplay:10.37,2013-01-28 16:55:00,
2013-01-28 11:00:00,36.3,32.5,29.93,SE,142,2.3,2.3,86,0.00,OVC,OVC,0.00,WeatherDisplay:10.37,2013-01-28 17:00:00,
2013-01-28 11:06:00,36.5,32.7,29.92,SE,142,3.5,3.5,86,0.00,OVC,OVC,0.00,WeatherDisplay:10.37,2013-01-28 17:06:00,
2013-01-28 11:11:00,36.6,32.8,29.92,SE,142,3.5,3.5,86,0.00,OVC,OVC,0.00,WeatherDisplay:10.37,2013-01-28 17:11:00,
2013-01-28 11:16:00,36.8,33.0,29.92,SE,142,2.3,2.3,86,0.00,OVC,OVC,0.00,WeatherDisplay:10.37,2013-01-28 17:16:00,
2013-01-28 11:21:00,36.8,33.0,29.92,SE,142,0.0,0.0,86,0.00,OVC,OVC,0.00,WeatherDisplay:10.37,2013-01-28 17:21:00,
2013-01-28 11:26:00,36.8,33.0,29.92,SE,140,3.0,3.0,86,0.00,OVC,OVC,0.00,WeatherDisplay:10.37,2013-01-28 17:26:00,
2013-01-28 11:32:00,36.8,33.0,29.92,SE,140,2.3,2.3,86,0.00,OVC,OVC,0.00,WeatherDisplay:10.37,2013-01-28 17:32:00,
2013-01-28 11:37:00,36.7,32.9,29.92,SE,129,3.5,3.5,86,0.00,OVC,OVC,0.00,WeatherDisplay:10.37,2013-01-28 17:37:00,
2013-01-28 11:42:00,36.8,33.0,29.91,SE,129,2.3,2.3,86,0.00,OVC,OVC,0.00,WeatherDisplay:10.37,2013-01-28 17:42:00,
2013-01-28 11:47:00,37.2,33.4,29.92,SE,131,2.3,2.3,86,0.00,OVC,OVC,0.00,WeatherDisplay:10.37,2013-01-28 17:47:00,
2013-01-28 11:52:00,37.3,33.5,29.92,SE,131,3.5,3.5,86,0.00,OVC,OVC,0.00,WeatherDisplay:10.37,2013-01-28 17:52:00,
2013-01-28 11:58:00,37.1,33.3,29.92,SE,131,3.5,3.5,86,0.00,OVC,OVC,0.00,WeatherDisplay:10.37,2013-01-28 17:58:00,
2013-01-28 12:03:00,37.1,33.3,29.92,SE,131,2.3,2.3,86,0.00,OVC,OVC,0.00,WeatherDisplay:10.37,2013-01-28 18:03:00,
2013-01-28 12:08:00,37.2,33.4,29.91,SSE,148,8.1,8.1,86,0.00,OVC,OVC,0.00,WeatherDisplay:10.37,2013-01-28 18:08:00,
2013-01-28 12:13:00,37.3,33.5,29.90,ESE,115,0.0,1.0,86,0.00,OVC,OVC,0.00,WeatherDisplay:10.37,2013-01-28 18:13:00,
2013-01-28 12:18:00,37.3,33.5,29.91,ESE,118,4.6,4.6,86,0.00,OVC,OVC,0.00,WeatherDisplay:10.37,2013-01-28 18:18:00,
2013-01-28 12:23:00,37.5,33.7,29.90,ESE,118,3.5,3.5,86,0.00,OVC,OVC,0.00,WeatherDisplay:10.37,2013-01-28 18:23:00,
2013-01-28 12:29:00,37.3,33.5,29.90,ESE,118,3.5,0.0,86,0.00,OVC,OVC,0.00,WeatherDisplay:10.37,2013-01-28 18:29:00,
2013-01-28 12:34:00,37.2,33.4,29.90,ESE,118,0.0,0.0,86,0.00,OVC,OVC,0.00,WeatherDisplay:10.37,2013-01-28 18:34:00,
2013-01-28 12:39:00,37.4,33.6,29.90,ESE,118,3.5,3.5,86,0.00,OVC,OVC,0.00,WeatherDisplay:10.37,2013-01-28 18:39:00,
2013-01-28 12:45:00,37.5,33.7,29.89,ESE,118,3.5,3.5,86,0.00,OVC,OVC,0.00,WeatherDisplay:10.37,2013-01-28 18:45:00,
2013-01-28 12:50:00,37.5,33.7,29.88,ENE,65,3.5,3.5,86,0.00,OVC,OVC,0.00,WeatherDisplay:10.37,2013-01-28 18:50:00,
2013-01-28 12:55:00,37.7,33.9,29.87,ESE,103,3.5,3.5,86,0.00,OVC,OVC,0.00,WeatherDisplay:10.37,2013-01-28 18:55:00,
2013-01-28 13:00:00,37.8,34.0,29.87,ESE,104,3.5,3.5,86,0.00,OVC,OVC,0.00,WeatherDisplay:10.37,2013-01-28 19:00:00,
2013-01-28 13:05:00,37.9,34.1,29.87,SE,129,3.5,3.5,86,0.00,OVC,OVC,0.00,WeatherDisplay:10.37,2013-01-28 19:05:00,
2013-01-28 13:11:00,38.2,34.4,29.87,SE,127,3.5,3.5,86,0.00,OVC,OVC,0.00,WeatherDisplay:10.37,2013-01-28 19:11:00,
2013-01-28 13:16:00,38.1,34.3,29.87,ESE,104,3.5,3.5,86,0.00,OVC,OVC,0.00,WeatherDisplay:10.37,2013-01-28 19:16:00,
2013-01-28 13:21:00,38.1,34.3,29.87,ESE,104,1.0,1.0,86,0.00,OVC,OVC,0.00,WeatherDisplay:10.37,2013-01-28 19:21:00,
2013-01-28 13:26:00,37.9,34.1,29.87,ESE,104,1.2,1.2,86,0.00,OVC,OVC,0.00,WeatherDisplay:10.37,2013-01-28 19:26:00,
2013-01-28 13:31:00,38.0,34.2,29.86,ESE,104,0.0,0.0,86,0.00,OVC,OVC,0.00,WeatherDisplay:10.37,2013-01-28 19:31:00,
2013-01-28 13:36:00,38.1,34.3,29.86,East,92,3.5,3.5,86,0.00,OVC,OVC,0.00,WeatherDisplay:10.37,2013-01-28 19:36:00,
2013-01-28 13:41:00,38.2,34.4,29.86,ESE,104,0.0,0.0,86,0.00,OVC,OVC,0.00,WeatherDisplay:10.37,2013-01-28 19:41:00,
2013-01-28 13:46:00,38.4,34.6,29.85,ESE,109,4.6,4.6,86,0.00,OVC,OVC,0.00,WeatherDisplay:10.37,2013-01-28 19:46:00,
2013-01-28 13:52:00,38.6,34.8,29.85,SE,143,4.0,4.0,86,0.00,OVC,OVC,0.00,WeatherDisplay:10.37,2013-01-28 19:52:00,
2013-01-28 13:57:00,38.8,35.0,29.85,ESE,110,4.6,4.6,86,0.00,OVC,OVC,0.00,WeatherDisplay:10.37,2013-01-28 19:57:00,
2013-01-28 14:02:00,38.6,34.8,29.85,SSE,149,3.5,3.5,86,0.00,OVC,OVC,0.00,WeatherDisplay:10.37,2013-01-28 20:02:00,
2013-01-28 14:07:00,38.7,34.9,29.85,SE,136,3.5,3.5,86,0.00,OVC,OVC,0.00,WeatherDisplay:10.37,2013-01-28 20:07:00,
2013-01-28 14:13:00,38.8,35.0,29.84,ENE,58,4.0,4.0,86,0.00,OVC,OVC,0.00,WeatherDisplay:10.37,2013-01-28 20:13:00,
2013-01-28 14:18:00,38.9,35.1,29.84,ENE,63,3.0,3.0,86,0.00,OVC,OVC,0.00,WeatherDisplay:10.37,2013-01-28 20:18:00,
2013-01-28 14:23:00,38.9,35.1,29.84,ENE,67,5.8,5.8,86,0.00,OVC,OVC,0.00,WeatherDisplay:10.37,2013-01-28 20:23:00,
2013-01-28 14:28:00,38.8,35.0,29.83,ENE,68,3.5,3.5,86,0.00,OVC,OVC,0.00,WeatherDisplay:10.37,2013-01-28 20:28:00,
2013-01-28 14:33:00,38.9,35.1,29.83,ESE,107,3.5,3.5,86,0.00,OVC,OVC,0.00,WeatherDisplay:10.37,2013-01-28 20:33:00,
2013-01-28 14:39:00,38.9,35.1,29.83,East,91,3.5,3.5,86,0.00,OVC,OVC,0.00,WeatherDisplay:10.37,2013-01-28 20:39:00,
2013-01-28 14:44:00,38.8,35.0,29.83,ENE,76,4.6,4.6,86,0.00,OVC,OVC,0.00,WeatherDisplay:10.37,2013-01-28 20:44:00,
2013-01-28 14:49:00,38.8,35.0,29.83,East,87,3.5,3.5,86,0.00,OVC,OVC,0.00,WeatherDisplay:10.37,2013-01-28 20:49:00,
2013-01-28 14:54:00,38.9,35.1,29.82,East,86,4.0,4.0,86,0.00,OVC,OVC,0.00,WeatherDisplay:10.37,2013-01-28 20:54:00,
2013-01-28 14:59:00,39.1,35.3,29.82,ENE,69,3.5,3.5,86,0.00,OVC,OVC,0.00,WeatherDisplay:10.37,2013-01-28 20:59:00,
2013-01-28 15:05:00,39.2,35.4,29.82,East,101,6.9,6.9,86,0.00,OVC,OVC,0.00,WeatherDisplay:10.37,2013-01-28 21:05:00,
2013-01-28 15:10:00,39.1,35.3,29.82,ESE,114,4.6,4.6,86,0.00,OVC,OVC,0.00,WeatherDisplay:10.37,2013-01-28 21:10:00,
2013-01-28 15:15:00,39.3,35.5,29.82,SE,145,1.2,1.2,86,0.00,OVC,OVC,0.00,WeatherDisplay:10.37,2013-01-28 21:15:00,
2013-01-28 15:20:00,39.3,35.5,29.82,ENE,69,3.5,3.5,86,0.00,OVC,OVC,0.00,WeatherDisplay:10.37,2013-01-28 21:20:00,
2013-01-28 15:26:00,39.4,35.6,29.82,ENE,69,3.5,3.5,86,0.00,OVC,OVC,0.00,WeatherDisplay:10.37,2013-01-28 21:26:00,
2013-01-28 15:31:00,39.4,35.6,29.82,ESE,117,5.8,5.8,86,0.00,OVC,OVC,0.00,WeatherDisplay:10.37,2013-01-28 21:31:00,
2013-01-28 15:36:00,39.5,35.7,29.82,ENE,76,3.5,3.5,86,0.00,OVC,OVC,0.00,WeatherDisplay:10.37,2013-01-28 21:36:00,
2013-01-28 15:41:00,39.4,35.6,29.81,East,101,3.5,3.5,86,0.00,OVC,OVC,0.00,WeatherDisplay:10.37,2013-01-28 21:41:00,
2013-01-28 15:47:00,39.4,35.6,29.82,ENE,77,4.6,4.6,86,0.00,OVC,OVC,0.00,WeatherDisplay:10.37,2013-01-28 21:47:00,
2013-01-28 15:52:00,39.4,35.6,29.82,East,101,5.8,5.8,86,0.00,OVC,OVC,0.00,WeatherDisplay:10.37,2013-01-28 21:52:00,
2013-01-28 15:57:00,39.4,35.6,29.82,ESE,119,4.6,4.6,86,0.00,OVC,OVC,0.00,WeatherDisplay:10.37,2013-01-28 21:57:00,
2013-01-28 16:02:00,39.4,35.6,29.82,East,87,3.5,3.5,86,0.00,OVC,OVC,0.00,WeatherDisplay:10.37,2013-01-28 22:02:00,
2013-01-28 16:07:00,39.3,35.5,29.81,SE,126,4.0,4.0,86,0.00,OVC,OVC,0.00,WeatherDisplay:10.37,2013-01-28 22:07:00,
2013-01-28 16:12:00,39.3,35.5,29.80,East,82,9.2,9.2,86,0.00,OVC,OVC,0.00,WeatherDisplay:10.37,2013-01-28 22:12:00,
2013-01-28 16:18:00,39.3,35.5,29.81,East,97,5.8,5.8,86,0.00,OVC,OVC,0.00,WeatherDisplay:10.37,2013-01-28 22:18:00,
2013-01-28 16:23:00,39.3,35.5,29.81,East,94,6.0,6.0,86,0.00,OVC,OVC,0.00,WeatherDisplay:10.37,2013-01-28 22:23:00,
2013-01-28 16:28:00,39.3,35.5,29.81,SE,142,5.8,5.8,86,0.00,OVC,OVC,0.00,WeatherDisplay:10.37,2013-01-28 22:28:00,
2013-01-28 16:33:00,39.3,35.5,29.80,East,82,4.6,4.6,86,0.00,OVC,OVC,0.00,WeatherDisplay:10.37,2013-01-28 22:33:00,
2013-01-28 16:38:00,39.3,35.5,29.80,East,84,4.6,4.6,86,0.00,OVC,OVC,0.00,WeatherDisplay:10.37,2013-01-28 22:38:00,
2013-01-28 16:43:00,39.3,35.5,29.79,ESE,106,4.6,4.6,86,0.00,OVC,OVC,0.00,WeatherDisplay:10.37,2013-01-28 22:43:00,
2013-01-28 16:49:00,39.3,35.5,29.79,SE,129,4.6,4.6,86,0.00,OVC,OVC,0.00,WeatherDisplay:10.37,2013-01-28 22:49:00,
2013-01-28 16:54:00,39.3,35.5,29.79,ESE,108,3.5,3.5,86,0.00,OVC,OVC,0.00,WeatherDisplay:10.37,2013-01-28 22:54:00,
2013-01-28 16:59:00,39.3,35.5,29.78,SE,130,4.6,4.6,86,0.00,OVC,OVC,0.00,WeatherDisplay:10.37,2013-01-28 22:59:00,
2013-01-28 17:04:00,39.3,35.5,29.78,East,89,4.0,4.0,86,0.00,OVC,OVC,0.00,WeatherDisplay:10.37,2013-01-28 23:04:00,
2013-01-28 17:09:00,39.4,35.6,29.78,SE,130,4.6,4.6,86,0.00,OVC,OVC,0.00,WeatherDisplay:10.37,2013-01-28 23:09:00,
2013-01-28 17:15:00,39.4,35.6,29.78,East,81,4.6,4.6,86,0.00,OVC,OVC,0.00,WeatherDisplay:10.37,2013-01-28 23:15:00,
2013-01-28 17:20:00,39.4,35.6,29.78,ENE,61,1.2,1.2,86,0.00,OVC,OVC,0.00,WeatherDisplay:10.37,2013-01-28 23:20:00,
2013-01-28 17:25:00,39.5,35.7,29.78,ENE,78,3.5,3.5,86,0.00,OVC,OVC,0.00,WeatherDisplay:10.37,2013-01-28 23:25:00,
2013-01-28 17:30:00,39.5,35.7,29.77,SE,126,5.0,5.0,86,0.00,OVC,OVC,0.00,WeatherDisplay:10.37,2013-01-28 23:30:00,
2013-01-28 17:36:00,39.6,35.8,29.77,ESE,121,6.9,6.9,86,0.00,OVC,OVC,0.00,WeatherDisplay:10.37,2013-01-28 23:36:00,
2013-01-28 17:41:00,39.7,35.9,29.76,ENE,78,4.6,4.6,86,0.00,OVC,OVC,0.00,WeatherDisplay:10.37,2013-01-28 23:41:00,
2013-01-28 17:46:00,39.7,35.9,29.76,ESE,113,5.8,5.8,86,0.00,OVC,OVC,0.00,WeatherDisplay:10.37,2013-01-28 23:46:00,
2013-01-28 17:51:00,39.8,36.0,29.76,ESE,108,3.0,3.0,86,0.00,OVC,OVC,0.00,WeatherDisplay:10.37,2013-01-28 23:51:00,
2013-01-28 17:57:00,39.8,36.0,29.76,ESE,111,4.6,4.6,86,0.00,OVC,OVC,0.00,WeatherDisplay:10.37,2013-01-28 23:57:00,
2013-01-28 18:02:00,39.9,36.1,29.76,East,94,5.8,5.8,86,0.00,OVC,OVC,0.00,WeatherDisplay:10.37,2013-01-29 00:02:00,
2013-01-28 18:07:00,39.9,36.1,29.76,East,95,3.5,3.5,86,0.00,OVC,OVC,0.00,WeatherDisplay:10.37,2013-01-29 00:07:00,
2013-01-28 18:12:00,40.1,36.2,29.76,SSE,147,9.0,9.0,86,0.00,OVC,OVC,0.00,WeatherDisplay:10.37,2013-01-29 00:12:00,
2013-01-28 18:17:00,40.2,36.3,29.75,ESE,113,4.6,4.6,86,0.00,OVC,OVC,0.00,WeatherDisplay:10.37,2013-01-29 00:17:00,
2013-01-28 18:23:00,40.2,36.3,29.75,ESE,113,3.5,3.5,86,0.00,OVC,OVC,0.00,WeatherDisplay:10.37,2013-01-29 00:23:00,
2013-01-28 18:28:00,40.3,36.4,29.75,ESE,117,1.2,1.2,86,0.00,OVC,OVC,0.00,WeatherDisplay:10.37,2013-01-29 00:28:00,
2013-01-28 18:33:00,40.3,36.4,29.75,SSE,150,5.8,5.8,86,0.00,OVC,OVC,0.00,WeatherDisplay:10.37,2013-01-29 00:33:00,
2013-01-28 18:38:00,40.4,36.5,29.75,ESE,114,3.5,3.5,86,0.00,OVC,OVC,0.00,WeatherDisplay:10.37,2013-01-29 00:38:00,
2013-01-28 18:43:00,40.5,36.6,29.75,ESE,116,3.5,3.5,86,0.00,OVC,OVC,0.00,WeatherDisplay:10.37,2013-01-29 00:43:00,
2013-01-28 18:49:00,40.6,36.7,29.75,SE,126,2.3,2.3,86,0.00,OVC,OVC,0.00,WeatherDisplay:10.37,2013-01-29 00:49:00,
2013-01-28 18:54:00,40.6,36.7,29.75,East,94,4.0,4.0,86,0.00,OVC,OVC,0.00,WeatherDisplay:10.37,2013-01-29 00:54:00,
2013-01-28 18:59:00,40.7,36.8,29.75,ESE,110,3.5,3.5,86,0.00,OVC,OVC,0.00,WeatherDisplay:10.37,2013-01-29 00:59:00,
2013-01-28 19:05:00,40.8,36.9,29.74,SE,132,6.9,6.9,86,0.00,OVC,OVC,0.00,WeatherDisplay:10.37,2013-01-29 01:05:00,
2013-01-28 19:10:00,40.9,37.0,29.74,SE,124,6.0,6.0,86,0.00,OVC,OVC,0.00,WeatherDisplay:10.37,2013-01-29 01:10:00,
2013-01-28 19:15:00,41.0,37.1,29.74,ESE,103,4.6,4.6,86,0.00,OVC,OVC,0.00,WeatherDisplay:10.37,2013-01-29 01:15:00,
2013-01-28 19:20:00,41.1,37.2,29.74,ESE,118,3.5,3.5,86,0.00,OVC,OVC,0.00,WeatherDisplay:10.37,2013-01-29 01:20:00,
2013-01-28 19:25:00,41.2,37.3,29.73,ESE,118,9.2,9.2,86,0.00,OVC,OVC,0.00,WeatherDisplay:10.37,2013-01-29 01:25:00,
2013-01-28 19:31:00,41.4,37.5,29.73,ESE,117,4.6,4.6,86,0.00,OVC,OVC,0.00,WeatherDisplay:10.37,2013-01-29 01:31:00,
2013-01-28 19:36:00,41.6,37.7,29.73,ESE,116,6.9,6.9,86,0.00,OVC,OVC,0.00,WeatherDisplay:10.37,2013-01-29 01:36:00,
2013-01-28 19:41:00,41.7,37.8,29.73,ESE,116,9.2,9.2,86,0.00,OVC,OVC,0.00,WeatherDisplay:10.37,2013-01-29 01:41:00,
2013-01-28 19:46:00,41.7,37.8,29.72,ESE,107,7.0,7.0,86,0.00,OVC,OVC,0.00,WeatherDisplay:10.37,2013-01-29 01:46:00,
2013-01-28 19:51:00,41.8,37.9,29.72,East,97,10.4,10.4,86,0.00,OVC,OVC,0.00,WeatherDisplay:10.37,2013-01-29 01:51:00,
2013-01-28 19:57:00,41.9,38.0,29.71,ESE,114,5.8,5.8,86,0.00,OVC,OVC,0.00,WeatherDisplay:10.37,2013-01-29 01:57:00,
2013-01-28 20:02:00,42.0,38.1,29.71,SE,126,6.9,6.9,86,0.00,OVC,OVC,0.00,WeatherDisplay:10.37,2013-01-29 02:02:00,
2013-01-28 20:07:00,42.0,38.1,29.71,SE,140,6.9,6.9,86,0.00,OVC,OVC,0.00,WeatherDisplay:10.37,2013-01-29 02:07:00,
2013-01-28 20:12:00,42.1,38.2,29.70,SE,126,10.4,10.4,86,0.00,OVC,OVC,0.00,WeatherDisplay:10.37,2013-01-29 02:12:00,
2013-01-28 20:18:00,42.2,38.6,29.71,SSE,151,5.8,5.8,87,0.00,OVC,OVC,0.00,WeatherDisplay:10.37,2013-01-29 02:18:00,
2013-01-28 20:23:00,42.3,38.7,29.70,SE,129,9.2,9.2,87,0.00,OVC,OVC,0.00,WeatherDisplay:10.37,2013-01-29 02:23:00,
2013-01-28 20:28:00,42.3,38.4,29.69,SSE,157,4.6,4.6,86,0.00,OVC,OVC,0.00,WeatherDisplay:10.37,2013-01-29 02:28:00,
2013-01-28 20:34:00,42.4,38.5,29.69,ESE,110,4.6,4.6,86,0.00,OVC,OVC,0.00,WeatherDisplay:10.37,2013-01-29 02:34:00,
2013-01-28 20:39:00,42.5,38.6,29.68,SSE,150,3.5,3.5,86,0.00,OVC,OVC,0.00,WeatherDisplay:10.37,2013-01-29 02:39:00,
2013-01-28 20:44:00,42.5,38.6,29.68,SE,144,5.0,5.0,86,0.00,OVC,OVC,0.00,WeatherDisplay:10.37,2013-01-29 02:44:00,
2013-01-28 20:49:00,42.5,38.6,29.67,ESE,116,6.9,6.9,86,0.00,OVC,OVC,0.00,WeatherDisplay:10.37,2013-01-29 02:49:00,
2013-01-28 20:55:00,42.6,38.7,29.67,SSE,154,3.5,3.5,86,0.00,OVC,OVC,0.00,WeatherDisplay:10.37,2013-01-29 02:55:00,
2013-01-28 21:00:00,42.7,38.8,29.67,SE,145,3.5,3.5,86,0.00,OVC,OVC,0.00,WeatherDisplay:10.37,2013-01-29 03:00:00,
2013-01-28 21:05:00,42.7,38.8,29.67,SE,143,4.0,4.0,86,0.00,OVC,OVC,0.00,WeatherDisplay:10.37,2013-01-29 03:05:00,
2013-01-28 21:10:00,42.7,38.8,29.67,SE,142,4.0,4.0,86,0.00,OVC,OVC,0.00,WeatherDisplay:10.37,2013-01-29 03:10:00,
2013-01-28 21:15:00,42.7,38.8,29.66,SE,134,3.5,3.5,86,0.00,OVC,OVC,0.00,WeatherDisplay:10.37,2013-01-29 03:15:00,
2013-01-28 21:21:00,42.8,39.2,29.66,SSE,149,3.5,3.5,87,0.00,OVC,OVC,0.00,WeatherDisplay:10.37,2013-01-29 03:21:00,
2013-01-28 21:26:00,42.8,39.2,29.65,SE,146,5.8,5.8,87,0.00,OVC,OVC,0.00,WeatherDisplay:10.37,2013-01-29 03:26:00,
2013-01-28 21:31:00,42.9,39.3,29.66,SE,142,3.5,3.5,87,0.00,OVC,OVC,0.00,WeatherDisplay:10.37,2013-01-29 03:31:00,
2013-01-28 21:36:00,43.0,39.4,29.65,SE,146,6.9,6.9,87,0.00,OVC,OVC,0.00,WeatherDisplay:10.37,2013-01-29 03:36:00,
2013-01-28 21:42:00,43.2,39.3,29.65,SE,146,4.0,4.0,86,0.00,OVC,OVC,0.00,WeatherDisplay:10.37,2013-01-29 03:42:00,
2013-01-28 21:47:00,43.3,39.7,29.65,SE,136,3.5,3.5,87,0.00,OVC,OVC,0.00,WeatherDisplay:10.37,2013-01-29 03:47:00,
2013-01-28 21:52:00,43.6,40.0,29.65,SE,142,6.9,6.9,87,0.00,OVC,OVC,0.00,WeatherDisplay:10.37,2013-01-29 03:52:00,
2013-01-28 21:57:00,43.9,40.3,29.65,SE,142,1.2,0.0,87,0.00,OVC,OVC,0.00,WeatherDisplay:10.37,2013-01-29 03:57:00,
2013-01-28 22:03:00,44.3,40.7,29.65,SE,142,3.5,3.5,87,0.00,OVC,OVC,0.00,WeatherDisplay:10.37,2013-01-29 04:03:00,
2013-01-28 22:08:00,44.7,41.1,29.64,SE,142,0.0,0.0,87,0.00,OVC,OVC,0.00,WeatherDisplay:10.37,2013-01-29 04:08:00,
2013-01-28 22:13:00,45.1,41.5,29.63,SE,144,1.2,1.2,87,0.00,OVC,OVC,0.00,WeatherDisplay:10.37,2013-01-29 04:13:00,
2013-01-28 22:18:00,45.4,41.8,29.63,SE,144,0.0,0.0,87,0.00,OVC,OVC,0.00,WeatherDisplay:10.37,2013-01-29 04:18:00,
2013-01-28 22:23:00,45.8,42.2,29.63,SE,144,2.3,2.3,87,0.00,OVC,OVC,0.00,WeatherDisplay:10.37,2013-01-29 04:23:00,
2013-01-28 22:29:00,46.2,42.5,29.62,SE,144,0.0,0.0,87,0.00,OVC,OVC,0.00,WeatherDisplay:10.37,2013-01-29 04:29:00,
2013-01-28 22:34:00,46.7,43.0,29.62,SE,144,3.5,3.5,87,0.00,OVC,OVC,0.00,WeatherDisplay:10.37,2013-01-29 04:34:00,
2013-01-28 22:39:00,47.0,43.3,29.62,SE,144,2.0,2.0,87,0.00,OVC,OVC,0.00,WeatherDisplay:10.37,2013-01-29 04:39:00,
2013-01-28 22:44:00,47.3,43.6,29.62,SE,144,2.3,2.3,87,0.00,OVC,OVC,0.00,WeatherDisplay:10.37,2013-01-29 04:44:00,
2013-01-28 22:49:00,47.8,44.1,29.61,SE,144,3.5,3.5,87,0.00,OVC,OVC,0.00,WeatherDisplay:10.37,2013-01-29 04:49:00,
2013-01-28 22:54:00,48.2,44.5,29.61,SE,146,4.0,4.0,87,0.00,OVC,OVC,0.00,WeatherDisplay:10.37,2013-01-29 04:54:00,
2013-01-28 22:59:00,48.4,44.7,29.61,ESE,122,5.8,5.8,87,0.00,OVC,OVC,0.00,WeatherDisplay:10.37,2013-01-29 04:59:00,
2013-01-28 23:01:00,48.4,44.7,29.61,SSE,160,3.5,3.5,87,0.00,OVC,OVC,0.00,WeatherDisplay:10.37,2013-01-29 05:01:00,
2013-01-28 23:03:00,48.5,44.8,29.61,SSE,159,3.5,0.0,87,0.00,OVC,OVC,0.00,WeatherDisplay:10.37,2013-01-29 05:03:00,
2013-01-28 23:07:00,48.6,44.9,29.61,SE,144,0.0,0.0,87,0.00,OVC,OVC,0.00,WeatherDisplay:10.37,2013-01-29 05:07:00,
2013-01-28 23:13:00,48.9,45.2,29.61,ESE,116,5.8,5.8,87,0.00,OVC,OVC,0.00,WeatherDisplay:10.37,2013-01-29 05:13:00,
2013-01-28 23:18:00,49.5,45.8,29.61,SSW,196,3.5,3.5,87,0.00,OVC,OVC,0.00,WeatherDisplay:10.37,2013-01-29 05:18:00,
2013-01-28 23:23:00,49.7,46.0,29.60,South,183,4.0,4.0,87,0.00,OVC,OVC,0.00,WeatherDisplay:10.37,2013-01-29 05:23:00,
2013-01-28 23:29:00,49.9,46.2,29.60,South,178,4.6,4.6,87,0.00,OVC,OVC,0.00,WeatherDisplay:10.37,2013-01-29 05:29:00,
2013-01-28 23:34:00,49.9,46.2,29.60,South,178,3.5,3.5,87,0.00,OVC,OVC,0.00,WeatherDisplay:10.37,2013-01-29 05:34:00,
2013-01-28 23:39:00,49.6,45.9,29.60,South,178,0.0,0.0,87,0.00,OVC,OVC,0.00,WeatherDisplay:10.37,2013-01-29 05:39:00,
2013-01-28 23:44:00,49.4,45.7,29.60,South,178,0.0,0.0,87,0.00,OVC,OVC,0.00,WeatherDisplay:10.37,2013-01-29 05:44:00,
2013-01-28 23:49:00,49.1,45.4,29.60,South,178,0.0,0.0,87,0.00,OVC,OVC,0.00,WeatherDisplay:10.37,2013-01-29 05:49:00,
2013-01-28 23:55:00,48.9,45.2,29.59,South,178,0.0,0.0,87,0.00,OVC,OVC,0.00,WeatherDisplay:10.37,2013-01-29 05:55:00,